createdAt,value
2017-12-19T00:01:51.552Z,13.80
2017-12-19T00:04:20.142Z,13.80
2017-12-19T00:06:48.852Z,13.80
2017-12-19T00:09:16.649Z,13.80
2017-12-19T00:11:44.428Z,13.80
2017-12-19T00:14:12.304Z,13.90
2017-12-19T00:16:40.998Z,13.80
2017-12-19T00:19:09.634Z,13.80
2017-12-19T00:21:37.513Z,13.80
2017-12-19T00:24:05.397Z,13.80
2017-12-19T00:26:33.306Z,13.80
2017-12-19T00:29:01.164Z,13.80
2017-12-19T00:31:29.856Z,13.80
2017-12-19T00:33:57.778Z,13.80
2017-12-19T00:36:25.756Z,13.70
2017-12-19T00:38:53.580Z,13.70
2017-12-19T00:41:21.451Z,13.70
2017-12-19T00:43:49.336Z,13.70
2017-12-19T00:46:17.210Z,13.70
2017-12-19T00:48:45.091Z,13.60
2017-12-19T00:51:12.922Z,13.60
2017-12-19T00:53:40.712Z,13.60
2017-12-19T00:56:08.617Z,13.60
2017-12-19T00:58:36.451Z,13.60
2017-12-19T01:01:04.316Z,13.60
2017-12-19T01:03:32.145Z,13.60
2017-12-19T01:06:00.041Z,13.60
2017-12-19T01:08:27.868Z,13.60
2017-12-19T01:10:55.765Z,13.60
2017-12-19T01:13:23.598Z,13.60
2017-12-19T01:15:51.464Z,13.60
2017-12-19T01:18:19.275Z,13.60
2017-12-19T01:20:47.184Z,13.60
2017-12-19T01:23:15.034Z,13.60
2017-12-19T01:25:43.640Z,13.70
2017-12-19T01:28:11.452Z,13.60
2017-12-19T01:30:39.274Z,13.70
2017-12-19T01:33:07.202Z,13.70
2017-12-19T01:35:35.861Z,13.70
2017-12-19T01:38:03.778Z,13.60
2017-12-19T01:40:31.616Z,13.70
2017-12-19T01:42:59.480Z,13.70
2017-12-19T01:45:27.294Z,13.70
2017-12-19T01:47:55.179Z,13.60
2017-12-19T01:50:23.038Z,13.70
2017-12-19T01:52:50.857Z,13.60
2017-12-19T01:55:19.404Z,13.60
2017-12-19T01:57:47.220Z,13.60
2017-12-19T02:00:15.017Z,13.70
2017-12-19T02:02:42.823Z,13.70
2017-12-19T02:05:10.623Z,13.70
2017-12-19T02:07:38.504Z,13.60
2017-12-19T02:10:06.283Z,13.70
2017-12-19T02:12:34.159Z,13.60
2017-12-19T02:15:02.066Z,13.60
2017-12-19T02:17:30.701Z,13.60
2017-12-19T02:19:58.596Z,13.60
2017-12-19T02:22:26.519Z,13.60
2017-12-19T02:24:54.477Z,13.60
2017-12-19T02:27:22.444Z,13.50
2017-12-19T02:29:50.384Z,13.50
2017-12-19T02:32:19.052Z,13.50
2017-12-19T02:34:46.955Z,13.50
2017-12-19T02:37:14.854Z,13.50
2017-12-19T02:39:42.816Z,13.40
2017-12-19T02:42:10.906Z,13.40
2017-12-19T02:44:38.807Z,13.40
2017-12-19T02:47:07.560Z,13.50
2017-12-19T02:49:35.446Z,13.50
2017-12-19T02:52:03.396Z,13.50
2017-12-19T02:54:31.339Z,13.50
2017-12-19T02:56:59.216Z,13.50
2017-12-19T02:59:27.151Z,13.50
2017-12-19T03:01:55.062Z,13.50
2017-12-19T03:04:22.952Z,13.60
2017-12-19T03:06:50.840Z,13.60
2017-12-19T03:09:19.473Z,13.60
2017-12-19T03:11:47.361Z,13.60
2017-12-19T03:14:15.357Z,13.60
2017-12-19T03:16:44.050Z,13.60
2017-12-19T03:19:11.958Z,13.60
2017-12-19T03:21:39.919Z,13.60
2017-12-19T03:24:07.801Z,13.60
2017-12-19T03:26:35.685Z,13.60
2017-12-19T03:29:04.337Z,13.60
2017-12-19T03:31:32.224Z,13.60
2017-12-19T03:34:00.175Z,13.60
2017-12-19T03:36:28.139Z,13.60
2017-12-19T03:38:56.092Z,13.60
2017-12-19T03:41:23.952Z,13.60
2017-12-19T03:43:51.852Z,13.60
2017-12-19T03:46:19.765Z,13.60
2017-12-19T03:48:47.748Z,13.60
2017-12-19T03:51:15.752Z,13.60
2017-12-19T03:53:43.661Z,13.60
2017-12-19T03:56:11.688Z,13.60
2017-12-19T03:58:39.619Z,13.60
2017-12-19T04:01:08.411Z,13.60
2017-12-19T04:03:36.383Z,13.60
2017-12-19T04:06:04.301Z,13.60
2017-12-19T04:08:32.204Z,13.60
2017-12-19T04:11:00.984Z,13.60
2017-12-19T04:13:29.617Z,13.60
2017-12-19T04:15:57.570Z,13.60
2017-12-19T04:18:25.583Z,13.60
2017-12-19T04:20:54.248Z,13.60
2017-12-19T04:23:22.147Z,13.50
2017-12-19T04:25:50.051Z,13.50
2017-12-19T04:28:17.992Z,13.50
2017-12-19T04:30:46.664Z,13.50
2017-12-19T04:33:14.628Z,13.50
2017-12-19T04:35:42.601Z,13.50
2017-12-19T04:38:10.491Z,13.50
2017-12-19T04:40:39.104Z,13.40
2017-12-19T04:43:06.993Z,13.40
2017-12-19T04:45:34.967Z,13.40
2017-12-19T04:48:02.911Z,13.40
2017-12-19T04:50:30.892Z,13.40
2017-12-19T04:52:58.836Z,13.40
2017-12-19T04:55:26.805Z,13.40
2017-12-19T04:57:54.728Z,13.40
2017-12-19T05:00:23.480Z,13.40
2017-12-19T05:02:51.431Z,13.40
2017-12-19T05:05:19.291Z,13.40
2017-12-19T05:07:47.268Z,13.40
2017-12-19T05:10:15.122Z,13.40
2017-12-19T05:12:43.075Z,13.40
2017-12-19T05:15:11.740Z,13.40
2017-12-19T05:17:39.687Z,13.40
2017-12-19T05:20:07.565Z,13.40
2017-12-19T05:22:35.436Z,13.40
2017-12-19T05:25:03.304Z,13.40
2017-12-19T05:27:31.245Z,13.40
2017-12-19T05:29:59.133Z,13.40
2017-12-19T05:32:27.038Z,13.40
2017-12-19T05:34:55.758Z,13.30
2017-12-19T05:37:23.656Z,13.30
2017-12-19T05:39:51.592Z,13.30
2017-12-19T05:42:19.534Z,13.30
2017-12-19T05:44:47.527Z,13.30
2017-12-19T05:47:16.182Z,13.30
2017-12-19T05:49:44.082Z,13.30
2017-12-19T05:52:12.035Z,13.30
2017-12-19T05:54:39.961Z,13.40
2017-12-19T05:57:08.692Z,13.50
2017-12-19T05:59:36.565Z,13.50
2017-12-19T06:02:04.474Z,13.60
2017-12-19T06:04:32.360Z,13.70
2017-12-19T06:07:01.068Z,13.90
2017-12-19T06:09:28.966Z,13.80
2017-12-19T06:11:56.858Z,14.00
2017-12-19T06:14:24.821Z,14.10
2017-12-19T06:16:52.817Z,14.10
2017-12-19T06:19:21.474Z,14.20
2017-12-19T06:21:49.361Z,14.20
2017-12-19T06:24:18.135Z,14.20
2017-12-19T06:26:46.114Z,14.20
2017-12-19T06:29:14.824Z,14.10
2017-12-19T06:31:43.501Z,14.20
2017-12-19T06:34:12.156Z,14.10
2017-12-19T06:36:40.038Z,14.10
2017-12-19T06:39:07.970Z,14.10
2017-12-19T06:41:35.967Z,14.10
2017-12-19T06:44:04.683Z,14.10
2017-12-19T06:46:32.631Z,14.00
2017-12-19T06:49:01.315Z,14.00
2017-12-19T06:51:29.982Z,14.00
2017-12-19T06:53:57.888Z,14.00
2017-12-19T06:56:25.863Z,13.90
2017-12-19T06:58:53.728Z,13.90
2017-12-19T07:01:21.780Z,13.90
2017-12-19T07:03:50.345Z,13.90
2017-12-19T07:06:18.218Z,13.90
2017-12-19T07:08:46.150Z,13.90
2017-12-19T07:11:15.127Z,13.80
2017-12-19T07:13:44.080Z,13.80
2017-12-19T07:16:12.040Z,13.80
2017-12-19T07:18:40.646Z,13.70
2017-12-19T07:21:09.302Z,13.70
2017-12-19T07:23:37.999Z,13.70
2017-12-19T07:26:06.712Z,13.70
2017-12-19T07:28:34.692Z,13.70
2017-12-19T07:31:02.569Z,13.80
2017-12-19T07:33:30.457Z,13.80
2017-12-19T07:35:58.362Z,13.80
2017-12-19T07:38:27.068Z,13.70
2017-12-19T07:40:54.953Z,13.70
2017-12-19T07:43:22.814Z,13.70
2017-12-19T07:45:50.689Z,13.70
2017-12-19T07:48:18.595Z,13.70
2017-12-19T07:50:46.409Z,13.70
2017-12-19T07:53:14.343Z,13.70
2017-12-19T07:55:42.936Z,13.80
2017-12-19T07:58:10.825Z,13.80
2017-12-19T08:00:39.448Z,13.80
2017-12-19T08:03:08.158Z,13.80
2017-12-19T08:05:36.815Z,13.80
2017-12-19T08:08:04.640Z,13.90
2017-12-19T08:10:32.446Z,13.90
2017-12-19T08:13:00.265Z,13.90
2017-12-19T08:15:28.124Z,13.90
2017-12-19T08:17:55.973Z,14.00
2017-12-19T08:20:24.637Z,14.10
2017-12-19T08:22:52.499Z,14.10
2017-12-19T08:25:20.374Z,14.20
2017-12-19T08:27:48.192Z,14.30
2017-12-19T08:30:16.779Z,14.40
2017-12-19T08:32:44.641Z,14.50
2017-12-19T08:35:12.488Z,14.60
2017-12-19T08:37:40.351Z,14.70
2017-12-19T08:40:08.941Z,14.90
2017-12-19T08:42:36.789Z,14.90
2017-12-19T08:45:05.454Z,15.10
2017-12-19T08:47:33.315Z,15.00
2017-12-19T08:50:01.204Z,15.20
2017-12-19T08:52:29.801Z,15.30
2017-12-19T08:54:57.583Z,15.30
2017-12-19T08:57:25.488Z,15.40
2017-12-19T08:59:53.294Z,15.50
2017-12-19T09:02:21.886Z,15.60
2017-12-19T09:04:49.731Z,15.60
2017-12-19T09:07:18.284Z,15.70
2017-12-19T09:09:46.092Z,15.60
2017-12-19T09:12:13.880Z,15.60
2017-12-19T09:14:41.768Z,15.60
2017-12-19T09:17:09.643Z,15.50
2017-12-19T09:19:37.540Z,15.50
2017-12-19T09:22:06.149Z,15.50
2017-12-19T09:24:34.011Z,15.50
2017-12-19T09:27:01.823Z,15.50
2017-12-19T09:29:29.669Z,15.50
2017-12-19T09:31:57.498Z,15.50
2017-12-19T09:34:25.368Z,15.50
2017-12-19T09:36:53.161Z,15.50
2017-12-19T09:39:20.988Z,15.50
2017-12-19T09:41:49.571Z,15.50
2017-12-19T09:44:18.144Z,15.50
2017-12-19T09:46:46.015Z,15.50
2017-12-19T09:49:14.557Z,15.60
2017-12-19T09:51:42.448Z,15.60
2017-12-19T09:54:10.329Z,15.60
2017-12-19T09:56:38.968Z,15.60
2017-12-19T09:59:06.911Z,15.60
2017-12-19T10:01:34.713Z,15.60
2017-12-19T10:04:02.596Z,15.70
2017-12-19T10:06:30.419Z,15.80
2017-12-19T10:08:58.272Z,15.80
2017-12-19T10:11:26.062Z,15.90
2017-12-19T10:13:53.896Z,16.00
2017-12-19T10:16:21.773Z,16.10
2017-12-19T10:18:49.783Z,16.20
2017-12-19T10:21:17.766Z,16.20
2017-12-19T10:23:45.728Z,16.30
2017-12-19T10:26:13.602Z,16.40
2017-12-19T10:28:41.478Z,16.40
2017-12-19T10:31:10.136Z,16.50
2017-12-19T10:33:37.988Z,16.50
2017-12-19T10:36:05.926Z,16.60
2017-12-19T10:38:33.785Z,16.60
2017-12-19T10:41:01.675Z,16.60
2017-12-19T10:43:29.630Z,16.70
2017-12-19T10:45:57.494Z,16.80
2017-12-19T10:48:25.395Z,16.80
2017-12-19T10:50:53.269Z,16.90
2017-12-19T10:53:21.056Z,16.90
2017-12-19T10:55:48.836Z,16.90
2017-12-19T10:58:17.406Z,16.90
2017-12-19T11:00:45.993Z,16.90
2017-12-19T11:03:14.552Z,17.00
2017-12-19T11:05:42.368Z,17.00
2017-12-19T11:08:10.152Z,17.00
2017-12-19T11:10:37.977Z,17.00
2017-12-19T11:13:06.565Z,17.10
2017-12-19T11:15:35.209Z,17.20
2017-12-19T11:18:03.073Z,17.10
2017-12-19T11:20:30.897Z,17.20
2017-12-19T11:22:58.848Z,17.20
2017-12-19T11:25:27.558Z,17.20
2017-12-19T11:27:55.487Z,17.20
2017-12-19T11:30:24.193Z,17.30
2017-12-19T11:32:52.915Z,17.40
2017-12-19T11:35:20.830Z,17.30
2017-12-19T11:37:49.498Z,17.50
2017-12-19T11:40:17.456Z,17.50
2017-12-19T11:42:45.322Z,17.60
2017-12-19T11:45:13.169Z,17.70
2017-12-19T11:47:41.028Z,17.80
2017-12-19T11:50:08.825Z,17.80
2017-12-19T11:52:36.631Z,17.80
2017-12-19T11:55:05.252Z,17.60
2017-12-19T11:57:33.091Z,17.60
2017-12-19T12:00:00.894Z,17.50
2017-12-19T12:02:28.795Z,17.40
2017-12-19T12:04:57.378Z,17.40
2017-12-19T12:07:26.010Z,17.40
2017-12-19T12:09:53.966Z,17.40
2017-12-19T12:12:21.810Z,17.40
2017-12-19T12:14:50.408Z,17.50
2017-12-19T12:17:18.312Z,17.50
2017-12-19T12:19:46.185Z,17.50
2017-12-19T12:22:14.047Z,17.60
2017-12-19T12:24:41.869Z,17.60
2017-12-19T12:27:09.725Z,17.50
2017-12-19T12:29:38.321Z,17.40
2017-12-19T12:32:06.163Z,17.40
2017-12-19T12:34:34.757Z,17.20
2017-12-19T12:37:02.651Z,17.20
2017-12-19T12:39:30.520Z,17.20
2017-12-19T12:41:58.320Z,17.10
2017-12-19T12:44:26.165Z,17.10
2017-12-19T12:46:54.807Z,17.10
2017-12-19T12:49:24.408Z,17.10
2017-12-19T12:51:52.989Z,17.10
2017-12-19T12:54:21.576Z,17.10
2017-12-19T12:56:50.130Z,17.10
2017-12-19T12:59:17.988Z,17.00
2017-12-19T13:01:45.864Z,17.10
2017-12-19T13:04:13.718Z,17.10
2017-12-19T13:06:41.708Z,17.00
2017-12-19T13:09:10.399Z,17.10
2017-12-19T13:11:39.109Z,17.10
2017-12-19T13:14:07.036Z,17.10
2017-12-19T13:16:34.954Z,17.10
2017-12-19T13:19:02.751Z,17.10
2017-12-19T13:21:30.610Z,17.10
2017-12-19T13:23:58.403Z,17.10
2017-12-19T13:26:26.235Z,17.10
2017-12-19T13:28:54.037Z,17.10
2017-12-19T13:31:21.872Z,17.10
2017-12-19T13:33:49.729Z,17.10
2017-12-19T13:36:17.687Z,17.00
2017-12-19T13:38:45.485Z,17.10
2017-12-19T13:41:13.259Z,17.20
2017-12-19T13:43:41.082Z,17.20
2017-12-19T13:46:08.954Z,17.30
2017-12-19T13:48:36.773Z,17.40
2017-12-19T13:51:05.378Z,17.40
2017-12-19T13:53:33.182Z,17.40
2017-12-19T13:56:01.041Z,17.50
2017-12-19T13:58:28.920Z,17.50
2017-12-19T14:00:56.737Z,17.60
2017-12-19T14:03:24.521Z,17.50
2017-12-19T14:05:52.547Z,17.60
2017-12-19T14:08:21.130Z,17.60
2017-12-19T14:10:49.739Z,17.60
2017-12-19T14:13:17.575Z,17.50
2017-12-19T14:15:46.231Z,17.50
2017-12-19T14:18:14.013Z,17.50
2017-12-19T14:20:41.836Z,17.50
2017-12-19T14:23:09.696Z,17.50
2017-12-19T14:25:37.584Z,17.50
2017-12-19T14:28:05.501Z,17.50
2017-12-19T14:30:34.071Z,17.50
2017-12-19T14:33:02.724Z,17.40
2017-12-19T14:35:31.367Z,17.40
2017-12-19T14:37:59.160Z,17.40
2017-12-19T14:40:26.948Z,17.40
2017-12-19T14:42:54.780Z,17.40
2017-12-19T14:45:22.612Z,17.40
2017-12-19T14:47:51.233Z,17.40
2017-12-19T14:50:19.119Z,17.40
2017-12-19T14:52:47.054Z,17.40
2017-12-19T14:55:15.047Z,17.40
2017-12-19T14:57:42.908Z,17.40
2017-12-19T15:00:10.724Z,17.40
2017-12-19T15:02:39.264Z,17.40
2017-12-19T15:05:07.103Z,17.40
2017-12-19T15:07:34.997Z,17.30
2017-12-19T15:10:02.860Z,17.30
2017-12-19T15:12:30.720Z,17.30
2017-12-19T15:15:04.144Z,17.30
2017-12-19T15:17:32.031Z,17.20
2017-12-19T15:20:00.679Z,17.10
2017-12-19T15:22:28.520Z,17.10
2017-12-19T15:24:56.456Z,17.10
2017-12-19T15:27:25.074Z,17.00
2017-12-19T15:29:52.960Z,17.00
2017-12-19T15:32:20.865Z,17.00
2017-12-19T15:34:50.161Z,16.90
2017-12-19T15:37:18.029Z,16.90
2017-12-19T15:39:45.891Z,16.90
2017-12-19T15:42:14.465Z,16.80
2017-12-19T15:44:42.265Z,16.80
2017-12-19T15:47:10.143Z,16.80
2017-12-19T15:49:38.048Z,16.80
2017-12-19T15:52:05.908Z,16.80
2017-12-19T15:54:33.797Z,16.80
2017-12-19T15:57:01.647Z,16.70
2017-12-19T15:59:29.444Z,16.70
2017-12-19T16:01:58.014Z,16.70
2017-12-19T16:04:25.813Z,16.70
2017-12-19T16:06:53.692Z,16.70
2017-12-19T16:09:21.473Z,16.70
2017-12-19T16:11:49.333Z,16.70
2017-12-19T16:14:17.128Z,16.60
2017-12-19T16:16:44.981Z,16.60
2017-12-19T16:19:12.826Z,16.60
2017-12-19T16:21:40.748Z,16.60
2017-12-19T16:24:08.623Z,16.60
2017-12-19T16:26:37.201Z,16.60
2017-12-19T16:29:05.770Z,16.50
2017-12-19T16:31:33.664Z,16.50
2017-12-19T16:34:02.338Z,16.50
2017-12-19T16:36:30.919Z,16.50
2017-12-19T16:38:59.541Z,16.50
2017-12-19T16:41:27.347Z,16.40
2017-12-19T16:43:55.224Z,16.50
2017-12-19T16:46:23.012Z,16.40
2017-12-19T16:48:51.643Z,16.40
2017-12-19T16:51:19.479Z,16.40
2017-12-19T16:53:47.293Z,16.40
2017-12-19T16:56:15.160Z,16.40
2017-12-19T16:58:42.955Z,16.40
2017-12-19T17:01:11.513Z,16.30
2017-12-19T17:03:39.300Z,16.20
2017-12-19T17:06:07.880Z,16.30
2017-12-19T17:08:36.438Z,16.20
2017-12-19T17:11:04.340Z,16.20
2017-12-19T17:13:32.899Z,16.20
2017-12-19T17:16:00.713Z,16.20
2017-12-19T17:18:28.531Z,16.20
2017-12-19T17:20:56.388Z,16.20
2017-12-19T17:23:24.211Z,16.20
2017-12-19T17:25:52.026Z,16.20
2017-12-19T17:28:19.820Z,16.10
2017-12-19T17:30:47.650Z,16.10
2017-12-19T17:33:15.541Z,16.10
2017-12-19T17:35:43.376Z,16.10
2017-12-19T17:38:11.273Z,16.10
2017-12-19T17:40:39.089Z,16.10
2017-12-19T17:43:06.972Z,16.10
2017-12-19T17:45:34.791Z,16.10
2017-12-19T17:48:02.659Z,16.10
2017-12-19T17:50:30.481Z,16.00
2017-12-19T17:52:58.333Z,16.00
2017-12-19T17:55:26.145Z,16.00
2017-12-19T17:57:53.951Z,16.00
2017-12-19T18:00:21.844Z,16.00
2017-12-19T18:02:50.429Z,15.90
2017-12-19T18:05:18.291Z,15.90
2017-12-19T18:07:46.915Z,15.90
2017-12-19T18:10:14.747Z,15.90
2017-12-19T18:12:43.416Z,15.90
2017-12-19T18:15:11.387Z,15.80
2017-12-19T18:17:39.269Z,15.80
2017-12-19T18:20:07.874Z,15.80
2017-12-19T18:22:35.748Z,15.80
2017-12-19T18:25:03.640Z,15.80
2017-12-19T18:27:31.504Z,15.80
2017-12-19T18:29:59.361Z,15.80
2017-12-19T18:32:27.224Z,15.80
2017-12-19T18:34:55.141Z,15.80
2017-12-19T18:37:23.040Z,15.80
2017-12-19T18:39:50.863Z,15.70
2017-12-19T18:42:18.755Z,15.70
2017-12-19T18:44:48.161Z,15.70
2017-12-19T18:47:16.819Z,15.70
2017-12-19T18:49:44.700Z,15.70
2017-12-19T18:52:12.588Z,15.70
2017-12-19T18:54:40.407Z,15.70
2017-12-19T18:57:08.292Z,15.70
2017-12-19T18:59:36.116Z,15.70
2017-12-19T19:02:03.917Z,15.70
2017-12-19T19:04:31.692Z,15.70
2017-12-19T19:07:01.060Z,15.70
2017-12-19T19:09:28.894Z,15.70
2017-12-19T19:11:56.733Z,15.70
2017-12-19T19:14:25.304Z,15.70
2017-12-19T19:16:53.149Z,15.70
2017-12-19T19:19:20.957Z,15.70
2017-12-19T19:21:49.504Z,15.60
2017-12-19T19:24:17.343Z,15.60
2017-12-19T19:26:45.192Z,15.60
2017-12-19T19:29:13.004Z,15.60
2017-12-19T19:31:40.832Z,15.60
2017-12-19T19:34:08.634Z,15.60
2017-12-19T19:36:37.658Z,15.60
2017-12-19T19:39:06.189Z,15.60
2017-12-19T19:41:34.114Z,15.60
2017-12-19T19:44:01.908Z,15.50
2017-12-19T19:46:29.736Z,15.50
2017-12-19T19:48:57.559Z,15.50
2017-12-19T19:51:26.200Z,15.50
2017-12-19T19:53:53.980Z,15.50
2017-12-19T19:56:21.821Z,15.50
2017-12-19T19:58:49.655Z,15.50
2017-12-19T20:01:17.444Z,15.50
2017-12-19T20:03:46.039Z,15.50
2017-12-19T20:06:13.872Z,15.40
2017-12-19T20:08:42.485Z,15.40
2017-12-19T20:11:11.034Z,15.40
2017-12-19T20:13:38.821Z,15.40
2017-12-19T20:16:07.480Z,15.40
2017-12-19T20:18:35.391Z,15.30
2017-12-19T20:21:05.675Z,15.30
2017-12-19T20:23:33.549Z,15.30
2017-12-19T20:26:01.360Z,15.30
2017-12-19T20:28:29.157Z,15.40
2017-12-19T20:30:57.816Z,15.40
2017-12-19T20:33:25.639Z,15.40
2017-12-19T20:35:54.191Z,15.30
2017-12-19T20:38:22.016Z,15.40
2017-12-19T20:40:49.817Z,15.40
2017-12-19T20:43:17.652Z,15.40
2017-12-19T20:45:45.470Z,15.40
2017-12-19T20:48:13.320Z,15.40
2017-12-19T20:50:41.170Z,15.40
2017-12-19T20:53:08.974Z,15.30
2017-12-19T20:55:37.534Z,15.30
2017-12-19T20:58:05.406Z,15.30
2017-12-19T21:00:33.246Z,15.30
2017-12-19T21:03:01.077Z,15.30
2017-12-19T21:05:28.915Z,15.30
2017-12-19T21:07:57.571Z,15.30
2017-12-19T21:10:25.360Z,15.30
2017-12-19T21:12:53.176Z,15.30
2017-12-19T21:15:20.980Z,15.20
2017-12-19T21:17:48.791Z,15.30
2017-12-19T21:20:17.882Z,15.30
2017-12-19T21:22:45.858Z,15.20
2017-12-19T21:25:13.660Z,15.20
2017-12-19T21:27:41.476Z,15.20
2017-12-19T21:30:09.329Z,15.20
2017-12-19T21:32:38.021Z,15.20
2017-12-19T21:35:06.595Z,15.20
2017-12-19T21:37:35.197Z,15.10
2017-12-19T21:40:03.021Z,15.10
2017-12-19T21:42:30.815Z,15.10
2017-12-19T21:44:59.384Z,15.20
2017-12-19T21:47:27.955Z,15.20
2017-12-19T21:49:55.793Z,15.20
2017-12-19T21:52:23.644Z,15.20
2017-12-19T21:54:51.521Z,15.20
2017-12-19T21:57:19.364Z,15.20
2017-12-19T21:59:47.194Z,15.20
2017-12-19T22:02:15.050Z,15.20
2017-12-19T22:04:42.865Z,15.20
2017-12-19T22:07:10.680Z,15.20
2017-12-19T22:09:38.478Z,15.20
2017-12-19T22:12:06.316Z,15.10
2017-12-19T22:14:34.100Z,15.10
2017-12-19T22:17:02.694Z,15.10
2017-12-19T22:19:30.524Z,15.10
2017-12-19T22:21:58.362Z,15.10
2017-12-19T22:24:26.172Z,15.10
2017-12-19T22:26:54.731Z,15.00
2017-12-19T22:29:22.568Z,15.00
2017-12-19T22:31:50.406Z,15.10
2017-12-19T22:34:18.240Z,15.10
2017-12-19T22:36:46.032Z,15.10
2017-12-19T22:39:13.889Z,15.10
2017-12-19T22:41:42.437Z,15.00
2017-12-19T22:44:10.243Z,15.00
2017-12-19T22:46:38.066Z,15.00
2017-12-19T22:49:07.449Z,15.00
2017-12-19T22:51:35.247Z,15.00
2017-12-19T22:54:03.051Z,15.00
2017-12-19T22:56:30.868Z,15.10
2017-12-19T22:58:58.688Z,15.10
2017-12-19T23:01:26.456Z,15.10
2017-12-19T23:03:54.302Z,15.10
2017-12-19T23:06:22.111Z,15.00
2017-12-19T23:08:49.941Z,15.00
2017-12-19T23:11:17.825Z,15.00
2017-12-19T23:13:45.614Z,15.00
2017-12-19T23:16:13.489Z,15.00
2017-12-19T23:18:41.296Z,15.00
2017-12-19T23:21:09.087Z,14.90
2017-12-19T23:23:36.892Z,14.90
2017-12-19T23:26:04.799Z,14.90
2017-12-19T23:28:32.586Z,15.00
2017-12-19T23:31:00.575Z,14.90
2017-12-19T23:33:28.358Z,15.00
2017-12-19T23:35:56.202Z,15.00
2017-12-19T23:38:24.110Z,14.90
2017-12-19T23:40:51.932Z,14.90
2017-12-19T23:43:20.522Z,14.90
2017-12-19T23:45:48.469Z,14.90
2017-12-19T23:48:16.302Z,14.90
2017-12-19T23:50:44.107Z,14.90
2017-12-19T23:53:11.894Z,15.00
2017-12-19T23:55:39.705Z,14.90
2017-12-19T23:58:07.525Z,14.90
